Pilot Point, TX (76258)

8:39 PM CDT on July 03, 2015 (GMT -0500)
Irick Real Estate - Pilot Point TX | | Change Station
CLOSE
Current Station
Personal Weather Station
Location: Pilot Point, TX
Elevation: 719 ft
Nearby Weather Stations

Elev 719 ft 33.38 °N, 96.96 °W | Updated 7 seconds ago

Partly Cloudy
Partly Cloudy
81.9 °F
Feels Like 90 °F
N
2.0
Wind Variable Wind from South
Gusts 2.5 mph

Today
High -- | Low -- °F
--% Chance of Precip.
Yesterday
High -- | Low -- °F
Precip. -- in
6:22 AM 8:41 PM
Waning Gibbous, 95% visible
Pressure 29.87 in
Visibility 10.0 miles
Clouds Clear
Heat Index 90 °F
Dew Point 77 °F
Humidity 85%
Rainfall 0.01 in
Snow Depth Not available.
UV 0.0 out of 12
Pollen 3.60 out of 12
Air Quality Not available.
Flu Activity Not available.
METAR KDTO 040053Z 22005KT 10SM CLR 29/21 A2989 RMK AO2 SLP113 T02890211

More Conditions Fewer Conditions

Pressure 29.87 in
Visibility 10.0 miles
Clouds Clear
Heat Index 90 °F
Dew Point 77 °F
Humidity 85%
Rainfall 0.01 in
Snow Depth Not available.
UV 0.0 out of 12
Pollen 3.60 out of 12
Air Quality Not available.
Flu Activity Not available.
METAR KDTO 040053Z 22005KT 10SM CLR 29/21 A2989 RMK AO2 SLP113 T02890211

More Conditions Fewer Conditions

Nowcast | as of 7:17 PM CDT on July 3, 2015

Ongoing shower and thunderstorm activity will continue to decrease through sunset with the loss of daytime heating...however...a stray shower or thunderstorm cannot be completely ruled out...especially near the Red River. The main hazards with any thunderstorm that develops this evening will be cloud to ground lightning...gusty winds and brief heavy rain. Otherwise...expect partly to mostly cloudy skies this evening across much of north and central Texas. Conditions through the late evening hours will remain mild and humid with temperatures slowly falling into the upper 70s and low 80s.

×

10-Day Weather Forecast

×

Almanac

Astronomy

Jul. 03, 2015 Rise Set
Actual Time
Civil Twilight
Nautical Twilight
Astronomical Twilight
Moon
Length of Visible Light
Length of Day
Tomorrow will be .
, % of the Moon is Illuminated

Today's Extremes

State Highs State Lows

Community

WunderPhotos

Upload Photos

1,834,865 photos uploaded!

WunderBlogs® & News

Nearby

Air Quality

  Air Quality AQ Index Pollutant
Not available.

Snow Depth

Station Depth Elevation

Earthquake Activity

City Distance Mag. Time & Date
Minimum magnitude displayed is 2.5.

Coastal Water Temperatures

Place Temperature

Stations

Nearby Weather Stations

Station Location Temp. Windchill Dew Point Humidity Wind Precip. Elev Updated Type